createdAt,value
2023-03-07T00:00:08.645Z,0.45
2023-03-07T00:02:56.572Z,0.42
2023-03-07T00:05:24.763Z,0.39
2023-03-07T00:07:52.733Z,0.36
2023-03-07T00:10:20.843Z,0.29
2023-03-07T00:12:48.867Z,0.19
2023-03-07T00:15:17.348Z,-0.03
2023-03-07T00:17:45.757Z,-0.23
2023-03-07T00:20:16.665Z,-0.39
2023-03-07T00:22:47.033Z,-0.55
2023-03-07T00:25:15.411Z,-0.69
2023-03-07T00:27:43.542Z,-0.81
2023-03-07T00:30:14.894Z,-0.91
2023-03-07T00:32:43.196Z,-0.97
2023-03-07T00:35:11.345Z,-0.98
2023-03-07T00:37:39.411Z,-0.96
2023-03-07T00:40:09.584Z,-0.93
2023-03-07T00:42:37.606Z,-0.92
2023-03-07T00:45:06.125Z,-0.90
2023-03-07T00:47:34.765Z,-0.91
2023-03-07T00:50:04.472Z,-0.92
2023-03-07T00:52:33.877Z,-0.97
2023-03-07T00:55:02.069Z,-0.99
2023-03-07T00:57:30.535Z,-1.01
2023-03-07T00:59:58.609Z,-1.06
2023-03-07T01:02:26.595Z,-1.09
2023-03-07T01:04:54.852Z,-1.13
2023-03-07T01:07:22.925Z,-1.22
2023-03-07T01:09:53.312Z,-1.28
2023-03-07T01:12:21.415Z,-1.33
2023-03-07T01:14:51.121Z,-1.37
2023-03-07T01:17:19.237Z,-1.40
2023-03-07T01:19:47.272Z,-1.47
2023-03-07T01:22:15.337Z,-1.54
2023-03-07T01:24:43.515Z,-1.60
2023-03-07T01:27:11.990Z,-1.62
2023-03-07T01:29:40.400Z,-1.63
2023-03-07T01:32:08.880Z,-1.65
2023-03-07T01:34:37.131Z,-1.66
2023-03-07T01:37:05.116Z,-1.68
2023-03-07T01:39:33.619Z,-1.73
2023-03-07T01:42:05.849Z,-1.79
2023-03-07T01:45:05.775Z,-1.82
2023-03-07T01:47:43.764Z,-1.84
2023-03-07T01:50:17.690Z,-1.87
2023-03-07T01:53:08.791Z,-1.90
2023-03-07T01:55:37.671Z,-1.92
2023-03-07T01:58:15.777Z,-1.95
2023-03-07T02:00:45.403Z,-1.96
2023-03-07T02:03:26.461Z,-1.98
2023-03-07T02:05:58.774Z,-2.02
2023-03-07T02:08:30.900Z,-2.03
2023-03-07T02:10:58.993Z,-2.05
2023-03-07T02:13:27.157Z,-2.07
2023-03-07T02:15:56.464Z,-2.07
2023-03-07T02:18:28.656Z,-2.09
2023-03-07T02:21:09.601Z,-2.12
2023-03-07T02:23:43.902Z,-2.19
2023-03-07T02:26:30.976Z,-2.26
2023-03-07T02:29:00.833Z,-2.36
2023-03-07T02:31:29.513Z,-2.45
2023-03-07T02:33:57.506Z,-2.55
2023-03-07T02:36:30.773Z,-2.64
2023-03-07T02:39:09.764Z,-2.76
2023-03-07T02:41:40.472Z,-2.83
2023-03-07T02:44:14.594Z,-2.92
2023-03-07T02:46:42.616Z,-3.00
2023-03-07T02:49:10.700Z,-3.07
2023-03-07T02:51:38.724Z,-3.12
2023-03-07T02:54:08.603Z,-3.19
2023-03-07T02:56:36.970Z,-3.23
2023-03-07T02:59:05.458Z,-3.24
2023-03-07T03:01:33.527Z,-3.24
2023-03-07T03:04:01.585Z,-3.22
2023-03-07T03:06:29.765Z,-3.21
2023-03-07T03:08:58.651Z,-3.24
2023-03-07T03:11:27.632Z,-3.26
2023-03-07T03:13:55.717Z,-3.31
2023-03-07T03:16:23.723Z,-3.35
2023-03-07T03:18:51.889Z,-3.40
2023-03-07T03:21:20.637Z,-3.42
2023-03-07T03:23:48.809Z,-3.46
2023-03-07T03:26:17.010Z,-3.51
2023-03-07T03:28:45.051Z,-3.59
2023-03-07T03:31:17.063Z,-3.64
2023-03-07T03:33:45.513Z,-3.66
2023-03-07T03:36:16.418Z,-3.70
2023-03-07T03:38:45.554Z,-3.72
2023-03-07T03:41:18.471Z,-3.78
2023-03-07T03:43:48.259Z,-3.85
2023-03-07T03:46:17.164Z,-3.93
2023-03-07T03:48:52.699Z,-4.01
2023-03-07T03:51:22.807Z,-4.09
2023-03-07T03:53:51.670Z,-4.11
2023-03-07T03:56:21.721Z,-4.12
2023-03-07T03:58:55.931Z,-4.10
2023-03-07T04:01:26.656Z,-4.06
2023-03-07T04:03:55.540Z,-3.92
2023-03-07T04:06:29.246Z,-3.78
2023-03-07T04:08:58.030Z,-3.68
2023-03-07T04:11:26.709Z,-3.58
2023-03-07T04:13:54.873Z,-3.52
2023-03-07T04:16:23.910Z,-3.46
2023-03-07T04:18:52.662Z,-3.39
2023-03-07T04:21:22.378Z,-3.31
2023-03-07T04:23:55.769Z,-3.25
2023-03-07T04:26:26.074Z,-3.20
2023-03-07T04:28:54.160Z,-3.15
2023-03-07T04:31:49.018Z,-3.09
2023-03-07T04:34:17.439Z,-3.06
2023-03-07T04:36:45.539Z,-3.04
2023-03-07T04:39:14.002Z,-3.03
2023-03-07T04:41:42.468Z,-3.00
2023-03-07T04:44:17.406Z,-2.98
2023-03-07T04:46:45.468Z,-2.93
2023-03-07T04:49:13.888Z,-2.88
2023-03-07T04:51:44.044Z,-2.84
2023-03-07T04:54:14.589Z,-2.82
2023-03-07T04:56:42.915Z,-2.80
2023-03-07T04:59:12.378Z,-2.80
2023-03-07T05:01:40.896Z,-2.79
2023-03-07T05:04:09.360Z,-2.75
2023-03-07T05:06:39.553Z,-2.78
2023-03-07T05:09:08.157Z,-2.80
2023-03-07T05:11:36.205Z,-2.86
2023-03-07T05:14:04.601Z,-2.90
2023-03-07T05:16:33.804Z,-2.96
2023-03-07T05:19:02.576Z,-3.01
2023-03-07T05:21:32.313Z,-3.05
2023-03-07T05:24:00.794Z,-3.08
2023-03-07T05:26:29.492Z,-3.12
2023-03-07T05:28:57.522Z,-3.15
2023-03-07T05:31:25.703Z,-3.13
2023-03-07T05:33:53.895Z,-3.09
2023-03-07T05:36:21.935Z,-3.06
2023-03-07T05:38:50.607Z,-3.01
2023-03-07T05:41:19.986Z,-2.95
2023-03-07T05:43:48.313Z,-3.00
2023-03-07T05:46:16.393Z,-3.07
2023-03-07T05:48:44.555Z,-3.06
2023-03-07T05:51:13.096Z,-3.05
2023-03-07T05:53:43.685Z,-3.06
2023-03-07T05:56:12.032Z,-3.06
2023-03-07T05:58:40.623Z,-3.06
2023-03-07T06:01:08.992Z,-3.03
2023-03-07T06:03:38.761Z,-3.07
2023-03-07T06:06:07.492Z,-3.11
2023-03-07T06:08:35.559Z,-3.11
2023-03-07T06:11:04.107Z,-3.06
2023-03-07T06:13:32.317Z,-2.99
2023-03-07T06:16:00.258Z,-2.93
2023-03-07T06:18:28.364Z,-2.83
2023-03-07T06:21:05.406Z,-2.76
2023-03-07T06:23:37.231Z,-2.73
2023-03-07T06:26:10.390Z,-2.71
2023-03-07T06:28:42.713Z,-2.70
2023-03-07T06:31:13.941Z,-2.72
2023-03-07T06:33:43.461Z,-2.70
2023-03-07T06:36:14.689Z,-2.66
2023-03-07T06:38:44.061Z,-2.61
2023-03-07T06:41:12.276Z,-2.52
2023-03-07T06:43:41.033Z,-2.42
2023-03-07T06:46:09.318Z,-2.34
2023-03-07T06:48:40.596Z,-2.28
2023-03-07T06:51:11.386Z,-2.20
2023-03-07T06:53:41.398Z,-2.14
2023-03-07T06:56:10.218Z,-2.05
2023-03-07T06:58:38.895Z,-1.92
2023-03-07T07:01:07.284Z,-1.80
2023-03-07T07:03:36.337Z,-1.69
2023-03-07T07:06:04.555Z,-1.64
2023-03-07T07:08:32.687Z,-1.61
2023-03-07T07:11:00.757Z,-1.58
2023-03-07T07:13:29.776Z,-1.54
2023-03-07T07:16:03.293Z,-1.45
2023-03-07T07:18:32.132Z,-1.30
2023-03-07T07:21:00.232Z,-1.24
2023-03-07T07:23:29.215Z,-1.22
2023-03-07T07:25:57.165Z,-1.19
2023-03-07T07:28:25.236Z,-1.16
2023-03-07T07:30:53.514Z,-1.11
2023-03-07T07:33:21.571Z,-1.04
2023-03-07T07:35:50.701Z,-0.88
2023-03-07T07:38:19.365Z,-0.74
2023-03-07T07:40:47.349Z,-0.70
2023-03-07T07:43:17.661Z,-0.72
2023-03-07T07:45:56.116Z,-0.79
2023-03-07T07:48:24.491Z,-0.87
2023-03-07T07:50:52.831Z,-0.85
2023-03-07T07:53:21.523Z,-0.76
2023-03-07T07:55:49.896Z,-0.68
2023-03-07T07:58:18.379Z,-0.58
2023-03-07T08:00:46.907Z,-0.49
2023-03-07T08:03:15.157Z,-0.43
2023-03-07T08:05:48.838Z,-0.39
2023-03-07T08:08:18.997Z,-0.37
2023-03-07T08:10:47.979Z,-0.27
2023-03-07T08:13:17.915Z,-0.04
2023-03-07T08:15:46.015Z,0.21
2023-03-07T08:18:14.216Z,0.38
2023-03-07T08:20:42.283Z,0.59
2023-03-07T08:23:10.260Z,0.79
2023-03-07T08:25:38.736Z,0.94
2023-03-07T08:28:06.736Z,1.04
2023-03-07T08:30:37.062Z,1.21
2023-03-07T08:33:05.202Z,1.38
2023-03-07T08:35:33.425Z,1.58
2023-03-07T08:38:01.655Z,1.81
2023-03-07T08:40:31.359Z,1.99
2023-03-07T08:42:59.781Z,2.11
2023-03-07T08:45:28.030Z,2.13
2023-03-07T08:47:57.623Z,2.07
2023-03-07T08:50:28.508Z,1.94
2023-03-07T08:52:57.890Z,1.89
2023-03-07T08:55:26.341Z,1.86
2023-03-07T08:57:54.309Z,1.82
2023-03-07T09:00:22.381Z,1.88
2023-03-07T09:02:50.317Z,2.02
2023-03-07T09:05:18.435Z,2.28
2023-03-07T09:07:46.376Z,2.58
2023-03-07T09:10:14.358Z,2.89
2023-03-07T09:12:42.262Z,3.25
2023-03-07T09:15:10.827Z,3.53
2023-03-07T09:17:39.296Z,3.72
2023-03-07T09:20:09.244Z,3.88
2023-03-07T09:22:37.823Z,4.04
2023-03-07T09:25:06.586Z,4.07
2023-03-07T09:27:34.750Z,3.92
2023-03-07T09:30:02.845Z,3.86
2023-03-07T09:32:33.734Z,3.95
2023-03-07T09:35:02.024Z,4.12
2023-03-07T09:37:30.016Z,4.31
2023-03-07T09:39:57.963Z,4.42
2023-03-07T09:43:09.040Z,4.52
2023-03-07T09:46:09.209Z,4.76
2023-03-07T09:48:55.473Z,4.82
2023-03-07T09:51:40.279Z,4.86
2023-03-07T09:54:20.326Z,4.93
2023-03-07T09:56:58.517Z,4.91
2023-03-07T09:59:43.534Z,4.94
2023-03-07T10:02:28.826Z,5.12
2023-03-07T10:05:16.252Z,5.37
2023-03-07T10:07:44.363Z,5.50
2023-03-07T10:10:17.850Z,5.48
2023-03-07T10:12:51.883Z,5.32
2023-03-07T10:15:46.432Z,5.24
2023-03-07T10:18:14.603Z,5.19
2023-03-07T10:20:52.121Z,5.25
2023-03-07T10:23:41.575Z,5.15
2023-03-07T10:26:24.357Z,5.17
2023-03-07T10:28:52.856Z,5.15
2023-03-07T10:31:25.796Z,5.29
2023-03-07T10:33:54.770Z,5.24
2023-03-07T10:36:29.226Z,5.15
2023-03-07T10:39:19.036Z,5.06
2023-03-07T10:41:47.008Z,5.00
2023-03-07T10:44:18.621Z,4.95
2023-03-07T10:46:55.688Z,4.89
2023-03-07T10:49:37.749Z,4.85
2023-03-07T10:52:29.364Z,4.87
2023-03-07T10:55:33.887Z,4.93
2023-03-07T10:58:28.498Z,5.05
2023-03-07T11:01:03.725Z,5.19
2023-03-07T11:03:54.134Z,5.35
2023-03-07T11:06:40.593Z,5.48
2023-03-07T11:09:19.452Z,5.43
2023-03-07T11:11:58.102Z,5.42
2023-03-07T11:14:27.980Z,5.38
2023-03-07T11:16:59.387Z,5.39
2023-03-07T11:19:34.966Z,5.37
2023-03-07T11:22:16.048Z,5.24
2023-03-07T11:25:00.517Z,5.13
2023-03-07T11:27:48.046Z,4.97
2023-03-07T11:30:26.743Z,4.85
2023-03-07T11:33:22.869Z,4.78
2023-03-07T11:36:14.186Z,4.73
2023-03-07T11:39:12.303Z,4.66
2023-03-07T11:41:48.030Z,4.65
2023-03-07T11:44:41.224Z,4.68
2023-03-07T11:47:44.700Z,4.73
2023-03-07T11:50:23.414Z,4.82
2023-03-07T11:53:20.070Z,4.85
2023-03-07T11:56:12.737Z,4.84
2023-03-07T11:58:47.216Z,4.93
2023-03-07T12:01:40.365Z,4.99
2023-03-07T12:04:30.351Z,5.04
2023-03-07T12:07:16.753Z,5.13
2023-03-07T12:10:16.572Z,5.21
2023-03-07T12:13:00.614Z,5.40
2023-03-07T12:15:57.045Z,5.56
2023-03-07T12:18:53.499Z,5.62
2023-03-07T12:21:33.333Z,5.54
2023-03-07T12:24:24.762Z,5.52
2023-03-07T12:27:26.236Z,5.57
2023-03-07T12:30:01.862Z,5.77
2023-03-07T12:32:34.649Z,5.97
2023-03-07T12:35:23.750Z,6.12
2023-03-07T12:37:51.778Z,6.28
2023-03-07T12:40:29.264Z,6.44
2023-03-07T12:43:09.212Z,6.64
2023-03-07T12:46:00.648Z,6.82
2023-03-07T12:48:34.658Z,6.98
2023-03-07T12:51:18.921Z,7.09
2023-03-07T12:53:55.212Z,7.11
2023-03-07T12:56:53.445Z,7.13
2023-03-07T12:59:22.325Z,7.12
2023-03-07T13:02:25.109Z,7.09
2023-03-07T13:04:53.592Z,7.12
2023-03-07T13:07:27.651Z,7.09
2023-03-07T13:09:59.292Z,7.06
2023-03-07T13:12:31.816Z,7.09
2023-03-07T13:15:06.469Z,7.07
2023-03-07T13:17:38.311Z,7.09
2023-03-07T13:20:15.292Z,7.17
2023-03-07T13:22:43.336Z,7.18
2023-03-07T13:25:20.473Z,7.14
2023-03-07T13:27:54.148Z,7.05
2023-03-07T13:30:24.614Z,7.03
2023-03-07T13:32:52.647Z,7.00
2023-03-07T13:35:32.911Z,6.93
2023-03-07T13:38:03.688Z,6.86
2023-03-07T13:40:47.368Z,6.81
2023-03-07T13:43:27.242Z,6.74
2023-03-07T13:45:59.857Z,6.69
2023-03-07T13:48:31.145Z,6.64
2023-03-07T13:50:59.044Z,6.64
2023-03-07T13:53:33.329Z,6.64
2023-03-07T13:56:15.862Z,6.62
2023-03-07T13:58:56.617Z,6.62
2023-03-07T14:01:27.498Z,6.61
2023-03-07T14:04:11.702Z,6.62
2023-03-07T14:06:50.489Z,6.59
2023-03-07T14:09:29.433Z,6.45
2023-03-07T14:12:12.681Z,6.36
2023-03-07T14:14:52.850Z,6.26
2023-03-07T14:17:42.306Z,6.14
2023-03-07T14:20:22.288Z,6.06
2023-03-07T14:23:03.528Z,6.02
2023-03-07T14:25:56.218Z,5.96
2023-03-07T14:28:28.786Z,5.93
2023-03-07T14:31:00.079Z,5.85
2023-03-07T14:33:37.460Z,5.77
2023-03-07T14:36:26.496Z,5.78
2023-03-07T14:38:57.392Z,5.78
2023-03-07T14:41:31.836Z,5.75
2023-03-07T14:44:38.689Z,5.77
2023-03-07T14:47:29.809Z,5.73
2023-03-07T14:50:26.890Z,5.72
2023-03-07T14:52:59.360Z,5.68
2023-03-07T14:55:35.508Z,5.64
2023-03-07T14:58:04.481Z,5.60
2023-03-07T15:00:34.838Z,5.56
2023-03-07T15:03:08.170Z,5.52
2023-03-07T15:05:52.038Z,5.47
2023-03-07T15:08:22.765Z,5.45
2023-03-07T15:11:03.237Z,5.43
2023-03-07T15:13:55.442Z,5.40
2023-03-07T15:16:34.498Z,5.33
2023-03-07T15:19:27.959Z,5.31
2023-03-07T15:21:59.617Z,5.25
2023-03-07T15:24:35.979Z,5.18
2023-03-07T15:27:06.628Z,5.14
2023-03-07T15:29:34.893Z,5.14
2023-03-07T15:32:07.559Z,5.13
2023-03-07T15:34:40.077Z,5.12
2023-03-07T15:37:24.195Z,5.13
2023-03-07T15:40:22.420Z,5.09
2023-03-07T15:42:53.912Z,5.07
2023-03-07T15:45:33.916Z,5.03
2023-03-07T15:48:18.788Z,5.02
2023-03-07T15:50:59.072Z,4.94
2023-03-07T15:53:30.665Z,4.89
2023-03-07T15:56:02.067Z,4.84
2023-03-07T15:58:31.120Z,4.79
2023-03-07T16:01:20.459Z,4.75
2023-03-07T16:04:01.562Z,4.70
2023-03-07T16:06:38.415Z,4.69
2023-03-07T16:09:06.786Z,4.69
2023-03-07T16:11:37.680Z,4.68
2023-03-07T16:14:14.086Z,4.68
2023-03-07T16:16:44.362Z,4.68
2023-03-07T16:19:12.592Z,4.69
2023-03-07T16:21:41.212Z,4.68
2023-03-07T16:24:09.566Z,4.64
2023-03-07T16:26:39.343Z,4.59
2023-03-07T16:29:08.988Z,4.55
2023-03-07T16:31:36.992Z,4.49
2023-03-07T16:34:06.687Z,4.41
2023-03-07T16:36:34.676Z,4.34
2023-03-07T16:39:02.634Z,4.29
2023-03-07T16:41:30.654Z,4.22
2023-03-07T16:43:59.747Z,4.17
2023-03-07T16:46:29.055Z,4.10
2023-03-07T16:48:57.061Z,4.08
2023-03-07T16:51:26.254Z,4.04
2023-03-07T16:58:31.109Z,3.91
2023-03-07T17:00:59.997Z,3.83
2023-03-07T17:03:29.907Z,3.79
2023-03-07T17:05:57.889Z,3.73
2023-03-07T17:08:25.832Z,3.71
2023-03-07T17:10:53.803Z,3.70
2023-03-07T17:13:21.751Z,3.67
2023-03-07T17:15:50.122Z,3.66
2023-03-07T17:18:18.020Z,3.65
2023-03-07T17:20:45.906Z,3.65
2023-03-07T17:23:13.800Z,3.69
2023-03-07T17:25:41.713Z,3.71
2023-03-07T17:28:14.334Z,3.73
2023-03-07T17:30:45.146Z,3.75
2023-03-07T17:33:14.999Z,3.75
2023-03-07T17:35:42.974Z,3.72
2023-03-07T17:38:10.841Z,3.72
2023-03-07T17:40:38.824Z,3.71
2023-03-07T17:43:06.831Z,3.71
2023-03-07T17:45:34.842Z,3.72
2023-03-07T17:48:02.858Z,3.73
2023-03-07T17:50:30.945Z,3.72
2023-03-07T17:52:59.045Z,3.75
2023-03-07T17:55:27.464Z,3.77
2023-03-07T17:57:55.628Z,3.79
2023-03-07T18:00:24.283Z,3.79
2023-03-07T18:02:54.273Z,3.80
2023-03-07T18:05:26.076Z,3.75
2023-03-07T18:07:54.528Z,3.70
2023-03-07T18:10:23.097Z,3.65
2023-03-07T18:12:53.676Z,3.62
2023-03-07T18:15:22.432Z,3.63
2023-03-07T18:17:50.529Z,3.65
2023-03-07T18:20:19.831Z,3.66
2023-03-07T18:22:48.191Z,3.66
2023-03-07T18:25:17.737Z,3.66
2023-03-07T18:27:46.076Z,3.68
2023-03-07T18:30:14.798Z,3.72
2023-03-07T18:32:42.842Z,3.78
2023-03-07T18:35:12.128Z,3.80
2023-03-07T18:37:40.016Z,3.82
2023-03-07T18:40:08.765Z,3.86
2023-03-07T18:42:36.814Z,3.90
2023-03-07T18:45:05.887Z,3.93
2023-03-07T18:47:33.783Z,3.95
2023-03-07T18:50:01.702Z,3.95
2023-03-07T18:52:29.618Z,3.94
2023-03-07T18:54:57.478Z,3.91
2023-03-07T18:57:25.385Z,3.90
2023-03-07T18:59:53.707Z,3.91
2023-03-07T19:02:21.637Z,3.93
2023-03-07T19:04:49.740Z,3.95
2023-03-07T19:07:17.654Z,3.97
2023-03-07T19:09:48.452Z,4.01
2023-03-07T19:12:16.736Z,4.05
2023-03-07T19:14:44.681Z,4.06
2023-03-07T19:17:12.609Z,4.07
2023-03-07T19:19:40.569Z,4.11
2023-03-07T19:22:08.858Z,4.16
2023-03-07T19:24:36.759Z,4.21
2023-03-07T19:27:04.665Z,4.26
2023-03-07T19:29:32.957Z,4.29
2023-03-07T19:32:00.889Z,4.32
2023-03-07T19:34:28.802Z,4.32
2023-03-07T19:36:56.912Z,4.35
2023-03-07T19:39:24.797Z,4.36
2023-03-07T19:41:53.358Z,4.36
2023-03-07T19:44:21.948Z,4.36
2023-03-07T19:46:49.865Z,4.35
2023-03-07T19:49:18.178Z,4.34
2023-03-07T19:51:46.071Z,4.35
2023-03-07T19:54:15.168Z,4.34
2023-03-07T19:56:45.113Z,4.34
2023-03-07T19:59:14.049Z,4.32
2023-03-07T20:01:42.070Z,4.34
2023-03-07T20:04:14.550Z,4.37
2023-03-07T20:11:16.665Z,4.47
2023-03-07T20:13:46.729Z,4.50
2023-03-07T20:16:17.420Z,4.52
2023-03-07T20:18:52.837Z,4.52
2023-03-07T20:21:27.861Z,4.47
2023-03-07T20:23:59.732Z,4.44
2023-03-07T20:26:34.405Z,4.38
2023-03-07T20:29:05.511Z,4.35
2023-03-07T20:31:34.698Z,4.34
2023-03-07T20:34:03.547Z,4.31
2023-03-07T20:36:36.788Z,4.30
2023-03-07T20:39:08.554Z,4.30
2023-03-07T20:41:36.541Z,4.30
2023-03-07T20:44:07.032Z,4.29
2023-03-07T20:46:36.039Z,4.26
2023-03-07T20:49:04.858Z,4.24
2023-03-07T20:51:36.163Z,4.25
2023-03-07T20:54:08.598Z,4.25
2023-03-07T20:56:39.278Z,4.27
2023-03-07T20:59:09.303Z,4.26
2023-03-07T21:01:37.351Z,4.26
2023-03-07T21:04:12.287Z,4.26
2023-03-07T21:06:42.729Z,4.25
2023-03-07T21:09:12.479Z,4.26
2023-03-07T21:11:47.215Z,4.23
2023-03-07T21:14:17.357Z,4.17
2023-03-07T21:16:45.413Z,4.13
2023-03-07T21:19:16.227Z,4.13
2023-03-07T21:26:22.209Z,4.13
2023-03-07T21:33:17.364Z,4.03
2023-03-07T21:35:45.467Z,4.02
2023-03-07T21:38:14.546Z,4.02
2023-03-07T21:40:43.346Z,3.98
2023-03-07T21:43:12.263Z,3.95
2023-03-07T21:45:41.491Z,3.94
2023-03-07T21:48:11.244Z,3.94
2023-03-07T21:50:43.324Z,3.93
2023-03-07T21:53:13.267Z,3.95
2023-03-07T21:55:50.262Z,4.00
2023-03-07T21:58:19.809Z,4.00
2023-03-07T22:00:49.308Z,4.00
2023-03-07T22:03:18.459Z,4.00
2023-03-07T22:05:46.553Z,3.97
2023-03-07T22:08:21.259Z,3.95
2023-03-07T22:11:01.289Z,3.92
2023-03-07T22:13:35.307Z,3.89
2023-03-07T22:20:36.287Z,3.93
2023-03-07T22:23:07.729Z,3.96
2023-03-07T22:25:38.281Z,3.98
2023-03-07T22:28:09.276Z,4.03
2023-03-07T22:30:40.299Z,4.04
2023-03-07T22:33:11.106Z,4.04
2023-03-07T22:35:42.745Z,4.07
2023-03-07T22:38:16.691Z,4.09
2023-03-07T22:40:48.311Z,4.12
2023-03-07T22:43:20.359Z,4.19
2023-03-07T22:45:53.350Z,4.24
2023-03-07T22:48:24.339Z,4.25
2023-03-07T22:50:55.341Z,4.25
2023-03-07T22:53:29.324Z,4.16
2023-03-07T22:56:00.754Z,4.00
2023-03-07T22:58:31.335Z,3.86
2023-03-07T23:01:02.351Z,3.73
2023-03-07T23:03:34.370Z,3.60
2023-03-07T23:13:41.293Z,3.10
2023-03-07T23:16:12.590Z,3.05
2023-03-07T23:18:42.245Z,3.00
2023-03-07T23:21:12.829Z,2.89
2023-03-07T23:23:41.219Z,2.81
2023-03-07T23:26:09.191Z,2.77
2023-03-07T23:28:37.201Z,2.71
2023-03-07T23:31:05.340Z,2.68
2023-03-07T23:33:34.017Z,2.66
2023-03-07T23:36:02.080Z,2.59
2023-03-07T23:38:30.154Z,2.49
2023-03-07T23:40:58.532Z,2.42
2023-03-07T23:43:26.643Z,2.39
2023-03-07T23:45:54.690Z,2.39
2023-03-07T23:48:22.750Z,2.34
2023-03-07T23:50:50.945Z,2.33
2023-03-07T23:53:18.888Z,2.33
2023-03-07T23:55:46.963Z,2.32
2023-03-07T23:58:15.137Z,2.29
